createdAt,value
2018-09-14T00:00:48.647Z,99.90
2018-09-14T00:03:17.104Z,99.90
2018-09-14T00:05:45.554Z,99.90
2018-09-14T00:08:14.161Z,99.90
2018-09-14T00:10:42.617Z,99.90
2018-09-14T00:13:11.105Z,99.90
2018-09-14T00:15:39.564Z,99.90
2018-09-14T00:18:08.030Z,99.90
2018-09-14T00:20:36.481Z,99.90
2018-09-14T00:23:04.978Z,99.90
2018-09-14T00:25:33.445Z,99.90
2018-09-14T00:28:01.959Z,99.90
2018-09-14T00:30:30.433Z,99.90
2018-09-14T00:32:58.934Z,99.90
2018-09-14T00:35:27.377Z,99.90
2018-09-14T00:37:55.850Z,99.90
2018-09-14T00:40:24.349Z,99.90
2018-09-14T00:42:52.794Z,99.90
2018-09-14T00:45:21.258Z,99.90
2018-09-14T00:47:49.706Z,99.90
2018-09-14T00:50:18.189Z,99.90
2018-09-14T00:52:46.626Z,99.90
2018-09-14T00:55:15.096Z,99.90
2018-09-14T00:57:43.529Z,99.90
2018-09-14T01:00:12.006Z,99.90
2018-09-14T01:02:40.464Z,99.90
2018-09-14T01:05:08.960Z,99.90
2018-09-14T01:07:37.403Z,99.90
2018-09-14T01:10:06.474Z,99.90
2018-09-14T01:12:34.906Z,99.90
2018-09-14T01:15:03.391Z,99.90
2018-09-14T01:17:31.869Z,99.90
2018-09-14T01:20:00.319Z,99.90
2018-09-14T01:22:28.780Z,99.90
2018-09-14T01:24:57.226Z,99.90
2018-09-14T01:27:25.721Z,99.90
2018-09-14T01:29:54.170Z,99.90
2018-09-14T01:32:22.712Z,99.90
2018-09-14T01:34:51.161Z,99.90
2018-09-14T01:37:19.635Z,99.90
2018-09-14T01:39:48.071Z,99.90
2018-09-14T01:42:16.550Z,99.90
2018-09-14T01:44:44.982Z,99.90
2018-09-14T01:47:13.429Z,99.90
2018-09-14T01:49:41.919Z,99.90
2018-09-14T01:52:10.369Z,99.90
2018-09-14T01:54:38.843Z,99.90
2018-09-14T01:57:07.265Z,99.90
2018-09-14T01:59:35.725Z,99.90
2018-09-14T02:02:04.200Z,99.90
2018-09-14T02:04:32.672Z,99.90
2018-09-14T02:07:01.190Z,99.90
2018-09-14T02:09:29.649Z,99.90
2018-09-14T02:11:58.133Z,99.90
2018-09-14T02:14:26.584Z,99.90
2018-09-14T02:16:55.322Z,99.90
2018-09-14T02:19:24.306Z,99.90
2018-09-14T02:21:52.747Z,99.90
2018-09-14T02:24:21.215Z,99.90
2018-09-14T02:26:49.640Z,99.90
2018-09-14T02:29:18.093Z,99.90
2018-09-14T02:31:46.659Z,99.90
2018-09-14T02:34:15.199Z,99.90
2018-09-14T02:36:43.720Z,99.90
2018-09-14T02:39:12.170Z,99.90
2018-09-14T02:41:40.604Z,99.90
2018-09-14T02:44:09.042Z,99.90
2018-09-14T02:46:37.505Z,99.90
2018-09-14T02:49:06.180Z,99.90
2018-09-14T02:51:34.618Z,99.90
2018-09-14T02:54:03.136Z,99.90
2018-09-14T02:56:31.621Z,99.90
2018-09-14T02:59:00.044Z,99.90
2018-09-14T03:01:28.512Z,99.90
2018-09-14T03:03:56.956Z,99.90
2018-09-14T03:06:25.433Z,99.90
2018-09-14T03:08:53.878Z,99.90
2018-09-14T03:11:22.383Z,99.90
2018-09-14T03:13:50.813Z,99.90
2018-09-14T03:16:19.240Z,99.90
2018-09-14T03:18:47.711Z,99.90
2018-09-14T03:21:16.156Z,99.90
2018-09-14T03:23:45.053Z,99.90
2018-09-14T03:26:14.026Z,99.90
2018-09-14T03:28:42.521Z,99.90
2018-09-14T03:31:10.986Z,99.90
2018-09-14T03:33:39.507Z,99.90
2018-09-14T03:36:08.057Z,99.90
2018-09-14T03:38:36.490Z,99.90
2018-09-14T03:41:04.998Z,99.90
2018-09-14T03:43:33.523Z,99.90
2018-09-14T03:46:02.484Z,99.90
2018-09-14T03:48:31.018Z,99.90
2018-09-14T03:50:59.581Z,99.90
2018-09-14T03:53:28.055Z,99.90
2018-09-14T03:55:56.528Z,99.90
2018-09-14T03:58:24.956Z,99.90
2018-09-14T04:00:53.407Z,99.90
2018-09-14T04:03:21.850Z,99.90
2018-09-14T04:05:50.377Z,99.90
2018-09-14T04:08:18.908Z,99.90
2018-09-14T04:10:47.354Z,99.90
2018-09-14T04:13:15.813Z,99.90
2018-09-14T04:15:44.267Z,99.90
2018-09-14T04:18:12.740Z,99.90
2018-09-14T04:20:41.231Z,99.90
2018-09-14T04:23:09.773Z,99.90
2018-09-14T04:25:38.217Z,99.90
2018-09-14T04:28:06.738Z,99.90
2018-09-14T04:30:35.550Z,99.90
2018-09-14T04:33:04.002Z,99.90
2018-09-14T04:35:32.454Z,99.90
2018-09-14T04:38:00.906Z,99.90
2018-09-14T04:40:29.349Z,99.90
2018-09-14T04:42:57.811Z,99.90
2018-09-14T04:45:26.257Z,99.90
2018-09-14T04:47:54.738Z,99.90
2018-09-14T04:50:23.581Z,99.90
2018-09-14T04:52:52.060Z,99.90
2018-09-14T04:55:20.524Z,99.90
2018-09-14T04:57:48.963Z,99.90
2018-09-14T05:00:17.462Z,99.90
2018-09-14T05:02:45.906Z,99.90
2018-09-14T05:05:14.413Z,99.90
2018-09-14T05:07:43.010Z,99.90
2018-09-14T05:10:11.378Z,99.90
2018-09-14T05:12:39.814Z,99.90
2018-09-14T05:15:08.296Z,99.90
2018-09-14T05:17:36.773Z,99.90
2018-09-14T05:20:05.300Z,99.90
2018-09-14T05:22:33.786Z,99.90
2018-09-14T05:25:02.292Z,99.90
2018-09-14T05:27:30.780Z,99.90
2018-09-14T05:29:59.418Z,99.90
2018-09-14T05:32:27.895Z,99.90
2018-09-14T05:34:56.458Z,99.90
2018-09-14T05:37:25.014Z,99.90
2018-09-14T05:39:53.465Z,99.90
2018-09-14T05:42:22.297Z,99.90
2018-09-14T05:44:50.760Z,99.90
2018-09-14T05:47:19.242Z,99.90
2018-09-14T05:49:47.689Z,99.90
2018-09-14T05:52:17.027Z,99.90
2018-09-14T05:54:45.474Z,99.90
2018-09-14T05:57:13.946Z,99.90
2018-09-14T05:59:42.637Z,99.90
2018-09-14T06:02:11.125Z,99.90
2018-09-14T06:04:39.826Z,99.90
2018-09-14T06:07:08.309Z,99.90
2018-09-14T06:09:36.770Z,99.90
2018-09-14T06:12:05.257Z,99.90
2018-09-14T06:14:34.052Z,99.90
2018-09-14T06:17:02.542Z,99.90
2018-09-14T06:19:31.000Z,99.90
2018-09-14T06:21:59.491Z,99.90
2018-09-14T06:24:27.921Z,99.90
2018-09-14T06:26:56.402Z,99.90
2018-09-14T06:29:24.949Z,99.90
2018-09-14T06:31:53.428Z,99.90
2018-09-14T06:34:21.909Z,99.90
2018-09-14T06:36:50.413Z,99.90
2018-09-14T06:39:18.874Z,99.90
2018-09-14T06:41:47.365Z,99.90
2018-09-14T06:44:15.898Z,99.90
2018-09-14T06:46:44.333Z,99.90
2018-09-14T06:49:12.806Z,99.90
2018-09-14T06:51:41.245Z,99.90
2018-09-14T06:54:10.092Z,99.90
2018-09-14T06:56:38.570Z,99.90
2018-09-14T06:59:07.034Z,99.90
2018-09-14T07:01:35.498Z,99.90
2018-09-14T07:04:04.012Z,99.90
2018-09-14T07:06:32.576Z,99.90
2018-09-14T07:09:00.941Z,99.90
2018-09-14T07:11:29.393Z,99.90
2018-09-14T07:13:57.850Z,99.90
2018-09-14T07:16:26.318Z,99.90
2018-09-14T07:18:54.789Z,99.90
2018-09-14T07:21:23.309Z,99.90
2018-09-14T07:23:51.771Z,99.90
2018-09-14T07:26:20.252Z,99.90
2018-09-14T07:28:49.003Z,99.90
2018-09-14T07:31:17.442Z,99.90
2018-09-14T07:33:45.869Z,99.90
2018-09-14T07:36:14.348Z,99.90
2018-09-14T07:38:42.905Z,99.90
2018-09-14T07:41:11.417Z,99.90
2018-09-14T07:43:39.913Z,99.90
2018-09-14T07:46:08.353Z,99.90
2018-09-14T07:48:36.857Z,99.90
2018-09-14T07:51:05.324Z,99.90
2018-09-14T07:53:33.810Z,99.90
2018-09-14T07:56:03.102Z,99.90
2018-09-14T07:58:31.579Z,99.90
2018-09-14T08:01:00.252Z,99.90
2018-09-14T08:03:28.684Z,99.90
2018-09-14T08:05:57.142Z,99.90
2018-09-14T08:08:25.613Z,99.90
2018-09-14T08:10:54.048Z,99.90
2018-09-14T08:13:22.535Z,99.90
2018-09-14T08:15:50.992Z,99.90
2018-09-14T08:18:19.452Z,99.90
2018-09-14T08:20:47.891Z,99.90
2018-09-14T08:23:16.370Z,99.90
2018-09-14T08:25:44.810Z,99.90
2018-09-14T08:28:14.217Z,99.90
2018-09-14T08:30:42.721Z,99.90
2018-09-14T08:33:11.749Z,99.90
2018-09-14T08:35:40.250Z,99.90
2018-09-14T08:38:08.705Z,99.90
2018-09-14T08:40:37.133Z,99.90
2018-09-14T08:43:05.618Z,99.90
2018-09-14T08:45:34.062Z,99.90
2018-09-14T08:48:02.617Z,99.90
2018-09-14T08:50:31.174Z,99.90
2018-09-14T08:52:59.650Z,99.90
2018-09-14T08:55:28.118Z,99.90
2018-09-14T08:57:56.671Z,99.90
2018-09-14T09:00:25.486Z,99.90
2018-09-14T09:02:54.855Z,99.90
2018-09-14T09:05:24.285Z,99.90
2018-09-14T09:07:52.761Z,99.90
2018-09-14T09:10:21.197Z,99.90
2018-09-14T09:12:50.482Z,99.90
2018-09-14T09:15:18.991Z,99.90
2018-09-14T09:17:47.609Z,99.90
2018-09-14T09:20:16.105Z,99.90
2018-09-14T09:22:45.328Z,99.90
2018-09-14T09:25:13.795Z,99.90
2018-09-14T09:27:42.301Z,99.90
2018-09-14T09:30:10.774Z,99.90
2018-09-14T09:32:39.257Z,99.90
2018-09-14T09:35:07.762Z,99.90
2018-09-14T09:37:36.488Z,99.90
2018-09-14T09:40:04.989Z,99.70
2018-09-14T09:42:33.903Z,99.90
2018-09-14T09:45:02.387Z,99.80
2018-09-14T09:47:30.858Z,99.90
2018-09-14T09:49:59.300Z,99.20
2018-09-14T09:52:27.782Z,98.90
2018-09-14T09:54:56.230Z,98.90
2018-09-14T09:57:24.739Z,98.50
2018-09-14T09:59:53.214Z,98.50
2018-09-14T10:02:26.859Z,98.50
2018-09-14T10:05:00.601Z,98.60
2018-09-14T10:07:29.062Z,98.50
2018-09-14T10:09:57.550Z,97.80
2018-09-14T10:12:26.011Z,97.40
2018-09-14T10:14:54.500Z,97.90
2018-09-14T10:17:22.945Z,97.80
2018-09-14T10:19:51.405Z,97.60
2018-09-14T10:22:19.847Z,97.60
2018-09-14T10:24:48.337Z,97.10
2018-09-14T10:27:16.789Z,96.90
2018-09-14T10:29:45.274Z,95.70
2018-09-14T10:32:13.759Z,96.90
2018-09-14T10:34:42.257Z,95.10
2018-09-14T10:37:10.763Z,94.80
2018-09-14T10:39:39.216Z,94.80
2018-09-14T10:42:07.737Z,94.00
2018-09-14T10:44:37.071Z,94.90
2018-09-14T10:47:05.615Z,95.20
2018-09-14T10:49:34.048Z,94.60
2018-09-14T10:52:02.522Z,94.00
2018-09-14T10:54:30.957Z,94.00
2018-09-14T10:56:59.465Z,93.40
2018-09-14T10:59:27.925Z,93.00
2018-09-14T11:01:56.408Z,93.30
2018-09-14T11:04:24.935Z,92.20
2018-09-14T11:06:53.367Z,91.80
2018-09-14T11:09:22.466Z,92.00
2018-09-14T11:11:50.918Z,92.30
2018-09-14T11:14:19.367Z,91.60
2018-09-14T11:16:47.845Z,92.10
2018-09-14T11:19:16.300Z,92.30
2018-09-14T11:21:44.780Z,92.10
2018-09-14T11:24:13.237Z,92.10
2018-09-14T11:26:41.689Z,92.10
2018-09-14T11:29:10.140Z,92.70
2018-09-14T11:31:38.658Z,92.60
2018-09-14T11:34:07.151Z,92.60
2018-09-14T11:36:35.818Z,92.80
2018-09-14T11:39:06.362Z,93.30
2018-09-14T11:41:34.812Z,92.20
2018-09-14T11:44:03.240Z,92.60
2018-09-14T11:46:31.741Z,92.30
2018-09-14T11:49:00.213Z,91.30
2018-09-14T11:51:28.677Z,91.30
2018-09-14T11:53:57.223Z,91.70
2018-09-14T11:56:25.699Z,91.30
2018-09-14T11:58:54.135Z,91.20
2018-09-14T12:01:22.916Z,91.10
2018-09-14T12:03:51.354Z,90.60
2018-09-14T12:06:19.800Z,90.80
2018-09-14T12:08:48.284Z,90.50
2018-09-14T12:11:16.719Z,90.40
2018-09-14T12:13:46.206Z,90.40
2018-09-14T12:16:15.476Z,90.10
2018-09-14T12:18:43.935Z,89.00
2018-09-14T12:21:13.326Z,88.60
2018-09-14T12:23:42.158Z,87.90
2018-09-14T12:26:10.597Z,87.90
2018-09-14T12:28:39.110Z,87.30
2018-09-14T12:31:07.664Z,87.20
2018-09-14T12:33:36.144Z,86.10
2018-09-14T12:36:04.676Z,86.50
2018-09-14T12:38:33.693Z,86.50
2018-09-14T12:41:02.200Z,88.00
2018-09-14T12:43:30.928Z,87.30
2018-09-14T12:45:59.456Z,87.00
2018-09-14T12:48:27.903Z,87.10
2018-09-14T12:50:56.369Z,86.20
2018-09-14T12:53:24.830Z,86.00
2018-09-14T12:55:53.276Z,85.40
2018-09-14T12:58:21.745Z,86.20
2018-09-14T13:00:51.689Z,85.50
2018-09-14T13:03:20.128Z,85.80
2018-09-14T13:05:48.838Z,84.80
2018-09-14T13:08:17.592Z,84.90
2018-09-14T13:10:46.025Z,84.80
2018-09-14T13:13:14.516Z,85.30
2018-09-14T13:15:49.532Z,84.80
2018-09-14T13:18:17.989Z,84.80
2018-09-14T13:20:46.442Z,83.50
2018-09-14T13:23:14.934Z,85.70
2018-09-14T13:25:43.589Z,84.50
2018-09-14T13:28:12.345Z,83.60
2018-09-14T13:30:40.783Z,83.90
2018-09-14T13:33:10.652Z,82.70
2018-09-14T13:35:39.129Z,83.00
2018-09-14T13:38:07.983Z,83.20
2018-09-14T13:40:36.430Z,83.00
2018-09-14T13:43:04.903Z,84.40
2018-09-14T13:45:33.385Z,83.30
2018-09-14T13:48:01.862Z,82.50
2018-09-14T13:50:30.598Z,83.50
2018-09-14T13:52:59.095Z,84.50
2018-09-14T13:55:28.278Z,83.60
2018-09-14T13:57:56.736Z,84.60
2018-09-14T14:00:25.210Z,82.80
2018-09-14T14:02:53.709Z,83.20
2018-09-14T14:05:22.560Z,83.60
2018-09-14T14:07:51.075Z,84.10
2018-09-14T14:10:19.605Z,84.80
2018-09-14T14:12:48.010Z,83.60
2018-09-14T14:15:16.534Z,82.60
2018-09-14T14:17:45.121Z,82.00
2018-09-14T14:20:13.576Z,82.20
2018-09-14T14:22:42.110Z,82.90
2018-09-14T14:25:10.534Z,83.30
2018-09-14T14:27:39.042Z,83.30
2018-09-14T14:30:07.617Z,83.50
2018-09-14T14:32:36.148Z,83.60
2018-09-14T14:35:04.645Z,83.40
2018-09-14T14:37:33.095Z,82.30
2018-09-14T14:40:01.666Z,83.80
2018-09-14T14:42:30.158Z,82.40
2018-09-14T14:44:58.651Z,82.50
2018-09-14T14:47:27.118Z,82.10
2018-09-14T14:49:56.261Z,81.90
2018-09-14T14:52:25.885Z,81.80
2018-09-14T14:54:54.331Z,82.30
2018-09-14T14:57:23.512Z,83.50
2018-09-14T14:59:52.126Z,82.20
2018-09-14T15:02:20.631Z,81.40
2018-09-14T15:04:49.191Z,81.50
2018-09-14T15:07:17.633Z,82.10
2018-09-14T15:09:46.157Z,81.70
2018-09-14T15:12:14.605Z,82.00
2018-09-14T15:14:43.219Z,81.70
2018-09-14T15:17:11.673Z,82.30
2018-09-14T15:19:40.193Z,82.50
2018-09-14T15:22:09.080Z,82.70
2018-09-14T15:24:37.528Z,82.40
2018-09-14T15:27:06.032Z,83.00
2018-09-14T15:29:34.558Z,83.10
2018-09-14T15:32:03.064Z,84.00
2018-09-14T15:34:31.508Z,83.50
2018-09-14T15:37:00.008Z,84.30
2018-09-14T15:39:28.433Z,84.70
2018-09-14T15:41:56.890Z,83.70
2018-09-14T15:44:26.022Z,84.10
2018-09-14T15:46:54.482Z,84.70
2018-09-14T15:49:22.943Z,85.40
2018-09-14T15:51:51.399Z,85.10
2018-09-14T15:54:19.847Z,84.60
2018-09-14T15:56:48.305Z,84.10
2018-09-14T15:59:16.734Z,85.00
2018-09-14T16:01:45.213Z,85.30
2018-09-14T16:04:13.698Z,85.70
2018-09-14T16:06:42.237Z,85.50
2018-09-14T16:09:11.584Z,86.20
2018-09-14T16:11:40.280Z,86.80
2018-09-14T16:14:09.156Z,86.30
2018-09-14T16:16:38.084Z,87.10
2018-09-14T16:19:06.553Z,87.10
2018-09-14T16:21:35.020Z,87.60
2018-09-14T16:24:03.637Z,87.00
2018-09-14T16:26:32.238Z,88.00
2018-09-14T16:29:02.140Z,88.40
2018-09-14T16:31:30.601Z,88.50
2018-09-14T16:33:59.242Z,88.50
2018-09-14T16:36:27.726Z,89.00
2018-09-14T16:38:56.201Z,88.90
2018-09-14T16:41:24.625Z,89.90
2018-09-14T16:43:53.097Z,89.90
2018-09-14T16:46:21.585Z,90.00
2018-09-14T16:48:50.046Z,90.20
2018-09-14T16:51:18.492Z,90.20
2018-09-14T16:53:46.931Z,89.90
2018-09-14T16:56:15.405Z,90.10
2018-09-14T16:58:43.892Z,90.00
2018-09-14T17:01:12.328Z,90.00
2018-09-14T17:03:40.784Z,90.00
2018-09-14T17:06:09.241Z,90.10
2018-09-14T17:08:37.697Z,90.10
2018-09-14T17:11:06.183Z,90.30
2018-09-14T17:13:34.660Z,90.30
2018-09-14T17:16:03.117Z,90.30
2018-09-14T17:18:31.553Z,90.60
2018-09-14T17:21:00.026Z,90.50
2018-09-14T17:23:29.348Z,90.80
2018-09-14T17:25:57.811Z,91.00
2018-09-14T17:28:26.274Z,91.00
2018-09-14T17:30:54.737Z,91.10
2018-09-14T17:33:23.188Z,91.30
2018-09-14T17:35:51.650Z,91.20
2018-09-14T17:38:20.091Z,91.60
2018-09-14T17:40:48.557Z,91.70
2018-09-14T17:43:17.003Z,91.70
2018-09-14T17:45:45.472Z,91.50
2018-09-14T17:48:13.946Z,91.70
2018-09-14T17:50:42.446Z,91.90
2018-09-14T17:53:12.016Z,91.70
2018-09-14T17:55:40.469Z,91.90
2018-09-14T17:58:08.941Z,92.30
2018-09-14T18:00:37.409Z,92.60
2018-09-14T18:03:05.993Z,93.10
2018-09-14T18:05:34.493Z,94.20
2018-09-14T18:08:02.973Z,95.10
2018-09-14T18:10:31.413Z,95.30
2018-09-14T18:12:59.896Z,95.80
2018-09-14T18:15:28.425Z,95.40
2018-09-14T18:17:56.927Z,95.50
2018-09-14T18:20:25.382Z,95.60
2018-09-14T18:22:53.862Z,95.90
2018-09-14T18:25:22.334Z,96.10
2018-09-14T18:27:50.901Z,96.10
2018-09-14T18:30:19.250Z,96.10
2018-09-14T18:32:47.723Z,95.50
2018-09-14T18:35:16.210Z,95.60
